sensor_id;sensor_type;location;lat;lon;timestamp;pressure;altitude;pressure_sealevel;temperature;humidity
61674;BME280;47573;43.832;5.974;2022-12-01T00:01:22;95099.09;;;20.83;73.39
61674;BME280;47573;43.832;5.974;2022-12-01T00:06:22;95100.88;;;20.77;73.42
61674;BME280;47573;43.832;5.974;2022-12-01T00:11:22;95096.94;;;20.73;73.47
61674;BME280;47573;43.832;5.974;2022-12-01T00:16:24;95098.47;;;20.69;73.11
61674;BME280;47573;43.832;5.974;2022-12-01T00:21:25;95102.13;;;20.63;72.67
61674;BME280;47573;43.832;5.974;2022-12-01T00:26:26;95104.03;;;20.63;72.78
61674;BME280;47573;43.832;5.974;2022-12-01T00:31:28;95103.66;;;20.59;72.80
61674;BME280;47573;43.832;5.974;2022-12-01T00:36:29;95102.47;;;20.55;72.74
61674;BME280;47573;43.832;5.974;2022-12-01T00:41:29;95110.00;;;20.53;72.56
61674;BME280;47573;43.832;5.974;2022-12-01T00:46:31;95097.97;;;20.49;72.48
61674;BME280;47573;43.832;5.974;2022-12-01T00:51:32;95109.91;;;20.48;72.66
61674;BME280;47573;43.832;5.974;2022-12-01T00:56:32;95099.75;;;20.44;72.41
61674;BME280;47573;43.832;5.974;2022-12-01T01:01:34;95102.78;;;20.36;72.45
61674;BME280;47573;43.832;5.974;2022-12-01T01:06:35;95107.38;;;20.35;72.07
61674;BME280;47573;43.832;5.974;2022-12-01T01:11:35;95109.16;;;20.30;72.10
61674;BME280;47573;43.832;5.974;2022-12-01T01:16:37;95117.50;;;20.28;72.05
61674;BME280;47573;43.832;5.974;2022-12-01T01:21:38;95117.38;;;20.23;72.04
61674;BME280;47573;43.832;5.974;2022-12-01T01:26:38;95113.00;;;20.22;71.76
61674;BME280;47573;43.832;5.974;2022-12-01T01:31:40;95119.31;;;20.16;71.75
61674;BME280;47573;43.832;5.974;2022-12-01T01:36:41;95127.44;;;20.16;71.84
61674;BME280;47573;43.832;5.974;2022-12-01T01:41:41;95116.00;;;20.14;71.62
61674;BME280;47573;43.832;5.974;2022-12-01T01:46:44;95124.13;;;20.14;71.64
61674;BME280;47573;43.832;5.974;2022-12-01T01:51:47;95118.13;;;20.12;71.67
61674;BME280;47573;43.832;5.974;2022-12-01T01:56:49;95116.91;;;20.08;71.67
61674;BME280;47573;43.832;5.974;2022-12-01T02:01:56;95121.97;;;20.04;71.68
61674;BME280;47573;43.832;5.974;2022-12-01T02:07:00;95118.69;;;20.02;71.50
61674;BME280;47573;43.832;5.974;2022-12-01T02:12:10;95116.16;;;20.01;71.53
61674;BME280;47573;43.832;5.974;2022-12-01T02:17:23;95112.50;;;19.95;71.26
61674;BME280;47573;43.832;5.974;2022-12-01T02:22:31;95114.84;;;19.92;71.22
61674;BME280;47573;43.832;5.974;2022-12-01T02:27:55;95113.19;;;19.91;71.20
61674;BME280;47573;43.832;5.974;2022-12-01T02:33:07;95108.44;;;19.86;71.38
61674;BME280;47573;43.832;5.974;2022-12-01T02:38:14;95105.75;;;19.86;71.23
61674;BME280;47573;43.832;5.974;2022-12-01T02:43:22;95108.09;;;19.83;71.23
61674;BME280;47573;43.832;5.974;2022-12-01T02:48:30;95105.63;;;19.81;71.13
61674;BME280;47573;43.832;5.974;2022-12-01T02:53:33;95103.59;;;19.77;71.38
61674;BME280;47573;43.832;5.974;2022-12-01T02:58:34;95093.19;;;19.74;70.94
61674;BME280;47573;43.832;5.974;2022-12-01T03:03:46;95091.56;;;19.73;71.21
61674;BME280;47573;43.832;5.974;2022-12-01T03:08:56;95093.06;;;19.69;71.03
61674;BME280;47573;43.832;5.974;2022-12-01T03:14:11;95095.16;;;19.67;71.02
61674;BME280;47573;43.832;5.974;2022-12-01T03:19:21;95103.31;;;19.67;70.93
61674;BME280;47573;43.832;5.974;2022-12-01T03:24:27;95093.38;;;19.61;70.99
61674;BME280;47573;43.832;5.974;2022-12-01T03:29:31;95090.88;;;19.59;70.88
61674;BME280;47573;43.832;5.974;2022-12-01T03:34:38;95092.19;;;19.57;70.92
61674;BME280;47573;43.832;5.974;2022-12-01T03:39:41;95087.19;;;19.54;70.76
61674;BME280;47573;43.832;5.974;2022-12-01T03:44:45;95092.03;;;19.52;70.98
61674;BME280;47573;43.832;5.974;2022-12-01T03:49:49;95090.16;;;19.52;70.64
61674;BME280;47573;43.832;5.974;2022-12-01T03:54:55;95095.19;;;19.49;70.77
61674;BME280;47573;43.832;5.974;2022-12-01T03:59:56;95096.47;;;19.46;70.60
61674;BME280;47573;43.832;5.974;2022-12-01T04:04:58;95090.66;;;19.43;70.67
61674;BME280;47573;43.832;5.974;2022-12-01T04:09:58;95087.34;;;19.41;70.54
61674;BME280;47573;43.832;5.974;2022-12-01T04:15:00;95083.84;;;19.40;70.45
61674;BME280;47573;43.832;5.974;2022-12-01T04:20:03;95087.81;;;19.38;70.54
61674;BME280;47573;43.832;5.974;2022-12-01T04:25:05;95082.84;;;19.35;70.55
61674;BME280;47573;43.832;5.974;2022-12-01T04:30:07;95087.44;;;19.34;70.44
61674;BME280;47573;43.832;5.974;2022-12-01T04:35:10;95087.03;;;19.31;70.37
61674;BME280;47573;43.832;5.974;2022-12-01T04:40:11;95082.69;;;19.30;70.52
61674;BME280;47573;43.832;5.974;2022-12-01T04:45:12;95086.19;;;19.30;70.30
61674;BME280;47573;43.832;5.974;2022-12-01T04:50:14;95085.13;;;19.38;70.27
61674;BME280;47573;43.832;5.974;2022-12-01T04:55:15;95076.66;;;19.27;70.33
61674;BME280;47573;43.832;5.974;2022-12-01T05:00:15;95078.78;;;19.25;70.36
61674;BME280;47573;43.832;5.974;2022-12-01T05:05:17;95081.78;;;19.17;70.40
61674;BME280;47573;43.832;5.974;2022-12-01T05:10:18;95083.84;;;19.15;70.42
61674;BME280;47573;43.832;5.974;2022-12-01T05:15:18;95081.59;;;19.12;70.48
61674;BME280;47573;43.832;5.974;2022-12-01T05:20:22;95077.25;;;19.11;70.43
61674;BME280;47573;43.832;5.974;2022-12-01T05:25:23;95073.03;;;19.15;70.22
61674;BME280;47573;43.832;5.974;2022-12-01T05:30:24;95082.66;;;19.11;70.25
61674;BME280;47573;43.832;5.974;2022-12-01T05:35:26;95075.22;;;19.07;70.14
61674;BME280;47573;43.832;5.974;2022-12-01T05:40:26;95074.81;;;19.03;70.21
61674;BME280;47573;43.832;5.974;2022-12-01T05:45:27;95069.03;;;19.00;70.13
61674;BME280;47573;43.832;5.974;2022-12-01T05:50:29;95076.19;;;18.94;70.18
61674;BME280;47573;43.832;5.974;2022-12-01T05:55:31;95082.03;;;18.91;70.15
61674;BME280;47573;43.832;5.974;2022-12-01T06:00:32;95087.31;;;18.86;70.17
61674;BME280;47573;43.832;5.974;2022-12-01T06:05:34;95085.88;;;18.84;70.20
61674;BME280;47573;43.832;5.974;2022-12-01T06:10:35;95082.16;;;18.78;70.21
61674;BME280;47573;43.832;5.974;2022-12-01T06:15:35;95083.22;;;18.77;70.17
61674;BME280;47573;43.832;5.974;2022-12-01T06:20:37;95079.53;;;18.72;70.16
61674;BME280;47573;43.832;5.974;2022-12-01T06:25:38;95092.66;;;18.68;70.11
61674;BME280;47573;43.832;5.974;2022-12-01T06:30:38;95098.53;;;18.65;70.23
61674;BME280;47573;43.832;5.974;2022-12-01T06:35:40;95106.81;;;18.64;70.12
61674;BME280;47573;43.832;5.974;2022-12-01T06:40:42;95103.13;;;18.58;70.14
61674;BME280;47573;43.832;5.974;2022-12-01T06:45:42;95097.34;;;18.55;70.07
61674;BME280;47573;43.832;5.974;2022-12-01T06:50:44;95111.09;;;18.53;70.07
61674;BME280;47573;43.832;5.974;2022-12-01T06:55:45;95108.81;;;18.50;70.02
61674;BME280;47573;43.832;5.974;2022-12-01T07:00:45;95116.94;;;18.50;69.92
61674;BME280;47573;43.832;5.974;2022-12-01T07:05:55;95117.34;;;18.47;69.96
61674;BME280;47573;43.832;5.974;2022-12-01T07:10:56;95121.91;;;18.53;69.58
61674;BME280;47573;43.832;5.974;2022-12-01T07:15:57;95111.53;;;18.50;69.72
61674;BME280;47573;43.832;5.974;2022-12-01T07:21:00;95125.59;;;18.59;69.32
61674;BME280;47573;43.832;5.974;2022-12-01T07:26:02;95127.47;;;18.58;69.24
61674;BME280;47573;43.832;5.974;2022-12-01T07:31:05;95137.59;;;18.69;68.71
61674;BME280;47573;43.832;5.974;2022-12-01T07:36:08;95139.84;;;18.72;68.40
61674;BME280;47573;43.832;5.974;2022-12-01T07:41:10;95136.53;;;18.70;68.60
61674;BME280;47573;43.832;5.974;2022-12-01T07:46:12;95151.25;;;18.74;68.25
61674;BME280;47573;43.832;5.974;2022-12-01T07:51:15;95143.75;;;18.76;68.15
61674;BME280;47573;43.832;5.974;2022-12-01T07:56:17;95150.84;;;18.77;67.95
61674;BME280;47573;43.832;5.974;2022-12-01T08:01:19;95150.72;;;18.90;66.86
61674;BME280;47573;43.832;5.974;2022-12-01T08:06:22;95149.00;;;18.71;67.10
61674;BME280;47573;43.832;5.974;2022-12-01T08:11:25;95151.16;;;18.87;66.23
61674;BME280;47573;43.832;5.974;2022-12-01T08:16:26;95154.47;;;18.89;67.61
61674;BME280;47573;43.832;5.974;2022-12-01T08:21:27;95158.25;;;18.88;67.96
61674;BME280;47573;43.832;5.974;2022-12-01T08:26:28;95161.09;;;18.93;67.77
61674;BME280;47573;43.832;5.974;2022-12-01T08:31:31;95169.75;;;19.02;67.33
61674;BME280;47573;43.832;5.974;2022-12-01T08:36:33;95170.38;;;19.04;67.53
61674;BME280;47573;43.832;5.974;2022-12-01T08:41:34;95165.50;;;19.12;67.23
61674;BME280;47573;43.832;5.974;2022-12-01T08:46:35;95166.47;;;19.18;67.09
61674;BME280;47573;43.832;5.974;2022-12-01T08:51:37;95169.72;;;19.26;66.95
61674;BME280;47573;43.832;5.974;2022-12-01T08:56:39;95174.91;;;19.28;62.73
61674;BME280;47573;43.832;5.974;2022-12-01T09:01:40;95168.50;;;19.04;63.81
61674;BME280;47573;43.832;5.974;2022-12-01T09:06:44;95170.41;;;18.97;61.35
61674;BME280;47573;43.832;5.974;2022-12-01T09:11:45;95168.59;;;18.91;58.10
61674;BME280;47573;43.832;5.974;2022-12-01T09:16:47;95172.84;;;19.05;60.50
61674;BME280;47573;43.832;5.974;2022-12-01T09:21:49;95173.06;;;19.04;58.74
61674;BME280;47573;43.832;5.974;2022-12-01T09:26:53;95180.63;;;18.95;57.28
61674;BME280;47573;43.832;5.974;2022-12-01T09:31:54;95178.09;;;19.00;56.58
61674;BME280;47573;43.832;5.974;2022-12-01T09:36:57;95171.34;;;19.09;56.82
61674;BME280;47573;43.832;5.974;2022-12-01T09:42:01;95173.00;;;19.10;56.55
61674;BME280;47573;43.832;5.974;2022-12-01T09:47:08;95177.09;;;19.19;57.13
61674;BME280;47573;43.832;5.974;2022-12-01T09:52:14;95177.41;;;19.36;59.93
61674;BME280;47573;43.832;5.974;2022-12-01T09:57:27;95163.50;;;19.51;60.08
61674;BME280;47573;43.832;5.974;2022-12-01T10:02:32;95169.22;;;19.61;59.94
61674;BME280;47573;43.832;5.974;2022-12-01T10:07:38;95177.75;;;19.76;60.13
61674;BME280;47573;43.832;5.974;2022-12-01T10:12:42;95175.28;;;19.74;60.29
61674;BME280;47573;43.832;5.974;2022-12-01T10:18:03;95159.41;;;19.78;60.20
61674;BME280;47573;43.832;5.974;2022-12-01T10:23:17;95155.22;;;19.82;60.22
61674;BME280;47573;43.832;5.974;2022-12-01T10:28:43;95148.34;;;19.97;59.70
61674;BME280;47573;43.832;5.974;2022-12-01T10:33:55;95146.56;;;19.73;57.00
61674;BME280;47573;43.832;5.974;2022-12-01T10:38:59;95145.56;;;19.68;56.92
61674;BME280;47573;43.832;5.974;2022-12-01T10:44:02;95149.66;;;19.59;53.80
61674;BME280;47573;43.832;5.974;2022-12-01T10:49:07;95139.84;;;19.58;52.45
61674;BME280;47573;43.832;5.974;2022-12-01T10:54:11;95135.03;;;19.60;53.10
61674;BME280;47573;43.832;5.974;2022-12-01T10:59:24;95120.38;;;18.88;48.75
61674;BME280;47573;43.832;5.974;2022-12-01T11:04:38;95120.75;;;19.71;55.61
61674;BME280;47573;43.832;5.974;2022-12-01T11:09:40;95130.50;;;19.90;55.65
61674;BME280;47573;43.832;5.974;2022-12-01T11:14:43;95129.72;;;20.01;55.96
61674;BME280;47573;43.832;5.974;2022-12-01T11:19:44;95133.34;;;19.95;56.57
61674;BME280;47573;43.832;5.974;2022-12-01T11:24:56;95133.34;;;19.95;57.04
61674;BME280;47573;43.832;5.974;2022-12-01T11:30:00;95130.78;;;20.00;57.47
61674;BME280;47573;43.832;5.974;2022-12-01T11:35:03;95119.47;;;20.03;57.57
61674;BME280;47573;43.832;5.974;2022-12-01T11:40:14;95129.50;;;20.02;57.97
61674;BME280;47573;43.832;5.974;2022-12-01T11:45:27;95127.00;;;20.01;58.15
61674;BME280;47573;43.832;5.974;2022-12-01T11:50:31;95124.91;;;20.03;58.37
61674;BME280;47573;43.832;5.974;2022-12-01T11:55:33;95127.00;;;20.01;58.69
61674;BME280;47573;43.832;5.974;2022-12-01T12:00:42;95118.88;;;20.01;51.67
61674;BME280;47573;43.832;5.974;2022-12-01T12:05:54;95110.03;;;19.94;51.19
61674;BME280;47573;43.832;5.974;2022-12-01T12:11:16;95113.13;;;19.79;53.15
61674;BME280;47573;43.832;5.974;2022-12-01T12:16:21;95105.06;;;19.91;52.30
61674;BME280;47573;43.832;5.974;2022-12-01T12:21:31;95096.47;;;19.46;46.52
61674;BME280;47573;43.832;5.974;2022-12-01T12:26:39;95099.38;;;19.45;47.55
61674;BME280;47573;43.832;5.974;2022-12-01T12:31:49;95095.56;;;19.09;46.75
61674;BME280;47573;43.832;5.974;2022-12-01T12:37:00;95087.63;;;18.96;47.02
61674;BME280;47573;43.832;5.974;2022-12-01T12:42:10;95089.13;;;18.92;47.21
61674;BME280;47573;43.832;5.974;2022-12-01T12:47:34;95088.19;;;19.41;51.15
61674;BME280;47573;43.832;5.974;2022-12-01T12:52:39;95073.44;;;19.55;51.05
61674;BME280;47573;43.832;5.974;2022-12-01T12:57:46;95079.25;;;19.59;50.51
61674;BME280;47573;43.832;5.974;2022-12-01T13:02:49;95068.84;;;19.56;49.63
61674;BME280;47573;43.832;5.974;2022-12-01T13:07:54;95071.56;;;19.38;50.57
61674;BME280;47573;43.832;5.974;2022-12-01T13:13:00;95064.66;;;19.42;52.03
61674;BME280;47573;43.832;5.974;2022-12-01T13:18:11;95073.31;;;19.50;53.69
61674;BME280;47573;43.832;5.974;2022-12-01T13:23:17;95063.19;;;19.57;53.85
61674;BME280;47573;43.832;5.974;2022-12-01T13:28:22;95067.56;;;19.58;54.06
61674;BME280;47573;43.832;5.974;2022-12-01T13:33:24;95056.97;;;19.57;54.59
61674;BME280;47573;43.832;5.974;2022-12-01T13:38:27;95055.06;;;19.57;55.10
61674;BME280;47573;43.832;5.974;2022-12-01T13:43:30;95047.75;;;19.76;54.79
61674;BME280;47573;43.832;5.974;2022-12-01T13:48:50;95048.66;;;19.99;55.22
61674;BME280;47573;43.832;5.974;2022-12-01T13:54:04;95051.41;;;20.11;55.86
61674;BME280;47573;43.832;5.974;2022-12-01T14:04:31;95044.88;;;20.30;56.71
61674;BME280;47573;43.832;5.974;2022-12-01T14:09:34;95045.88;;;20.47;57.02
61674;BME280;47573;43.832;5.974;2022-12-01T14:14:38;95041.16;;;20.54;57.23
61674;BME280;47573;43.832;5.974;2022-12-01T14:19:45;95043.53;;;20.62;57.65
61674;BME280;47573;43.832;5.974;2022-12-01T14:24:50;95045.06;;;20.58;58.15
61674;BME280;47573;43.832;5.974;2022-12-01T14:29:51;95044.91;;;20.53;58.39
61674;BME280;47573;43.832;5.974;2022-12-01T14:35:02;95035.75;;;20.54;58.89
61674;BME280;47573;43.832;5.974;2022-12-01T14:40:07;95046.09;;;20.57;59.12
61674;BME280;47573;43.832;5.974;2022-12-01T14:45:14;95040.22;;;20.60;59.62
61674;BME280;47573;43.832;5.974;2022-12-01T14:50:21;95034.81;;;20.60;60.03
61674;BME280;47573;43.832;5.974;2022-12-01T14:55:27;95050.13;;;20.66;60.04
61674;BME280;47573;43.832;5.974;2022-12-01T15:00:30;95046.72;;;20.71;60.14
61674;BME280;47573;43.832;5.974;2022-12-01T15:05:40;95041.19;;;20.77;60.41
61674;BME280;47573;43.832;5.974;2022-12-01T15:10:49;95050.38;;;20.76;60.84
61674;BME280;47573;43.832;5.974;2022-12-01T15:15:51;95045.66;;;20.83;60.86
61674;BME280;47573;43.832;5.974;2022-12-01T15:20:58;95058.66;;;20.81;61.02
61674;BME280;47573;43.832;5.974;2022-12-01T15:26:00;95054.41;;;20.86;61.40
61674;BME280;47573;43.832;5.974;2022-12-01T15:31:08;95056.38;;;20.90;61.18
61674;BME280;47573;43.832;5.974;2022-12-01T15:36:12;95063.00;;;20.94;61.61
61674;BME280;47573;43.832;5.974;2022-12-01T15:41:16;95063.34;;;20.98;61.56
61674;BME280;47573;43.832;5.974;2022-12-01T15:46:18;95058.28;;;21.01;61.78
61674;BME280;47573;43.832;5.974;2022-12-01T15:51:27;95058.28;;;21.01;61.94
61674;BME280;47573;43.832;5.974;2022-12-01T15:56:30;95059.03;;;21.08;62.19
61674;BME280;47573;43.832;5.974;2022-12-01T16:01:33;95059.34;;;21.12;62.59
61674;BME280;47573;43.832;5.974;2022-12-01T16:06:37;95062.06;;;21.12;62.51
61674;BME280;47573;43.832;5.974;2022-12-01T16:11:38;95064.91;;;21.17;63.04
61674;BME280;47573;43.832;5.974;2022-12-01T16:16:41;95064.56;;;21.25;63.36
61674;BME280;47573;43.832;5.974;2022-12-01T16:21:47;95058.84;;;21.38;63.12
61674;BME280;47573;43.832;5.974;2022-12-01T16:26:50;95065.47;;;21.42;63.33
61674;BME280;47573;43.832;5.974;2022-12-01T16:31:52;95067.09;;;21.43;63.66
61674;BME280;47573;43.832;5.974;2022-12-01T16:36:56;95080.81;;;21.48;63.55
61674;BME280;47573;43.832;5.974;2022-12-01T16:41:58;95069.56;;;21.44;63.64
61674;BME280;47573;43.832;5.974;2022-12-01T16:46:59;95079.16;;;21.47;64.28
61674;BME280;47573;43.832;5.974;2022-12-01T16:52:01;95075.50;;;21.41;64.31
61674;BME280;47573;43.832;5.974;2022-12-01T16:57:02;95082.44;;;21.60;64.33
61674;BME280;47573;43.832;5.974;2022-12-01T17:02:03;95082.66;;;21.59;64.25
61674;BME280;47573;43.832;5.974;2022-12-01T17:07:05;95090.22;;;21.57;64.65
61674;BME280;47573;43.832;5.974;2022-12-01T17:12:06;95096.50;;;21.57;64.86
61674;BME280;47573;43.832;5.974;2022-12-01T17:17:07;95093.53;;;21.59;64.91
61674;BME280;47573;43.832;5.974;2022-12-01T17:22:09;95095.19;;;21.60;65.20
61674;BME280;47573;43.832;5.974;2022-12-01T17:27:09;95097.66;;;21.61;65.25
61674;BME280;47573;43.832;5.974;2022-12-01T17:32:10;95101.22;;;21.62;65.47
61674;BME280;47573;43.832;5.974;2022-12-01T17:37:12;95103.94;;;21.62;65.63
61674;BME280;47573;43.832;5.974;2022-12-01T17:42:13;95112.06;;;21.62;65.83
61674;BME280;47573;43.832;5.974;2022-12-01T17:47:13;95107.56;;;21.68;65.86
61674;BME280;47573;43.832;5.974;2022-12-01T17:52:16;95115.13;;;21.66;66.24
61674;BME280;47573;43.832;5.974;2022-12-01T17:57:16;95118.19;;;21.69;66.64
61674;BME280;47573;43.832;5.974;2022-12-01T18:02:17;95121.75;;;21.70;66.29
61674;BME280;47573;43.832;5.974;2022-12-01T18:07:19;95133.56;;;21.75;66.45
61674;BME280;47573;43.832;5.974;2022-12-01T18:12:20;95130.34;;;21.78;66.75
61674;BME280;47573;43.832;5.974;2022-12-01T18:17:20;95129.19;;;21.74;66.70
61674;BME280;47573;43.832;5.974;2022-12-01T18:22:22;95132.94;;;21.73;66.86
61674;BME280;47573;43.832;5.974;2022-12-01T18:27:23;95128.13;;;21.75;67.03
61674;BME280;47573;43.832;5.974;2022-12-01T18:32:23;95125.75;;;21.79;66.95
61674;BME280;47573;43.832;5.974;2022-12-01T18:37:25;95137.91;;;21.76;67.30
61674;BME280;47573;43.832;5.974;2022-12-01T18:42:26;95139.59;;;21.77;67.41
61674;BME280;47573;43.832;5.974;2022-12-01T18:47:27;95145.00;;;21.77;67.74
61674;BME280;47573;43.832;5.974;2022-12-01T18:52:30;95149.63;;;21.77;67.44
61674;BME280;47573;43.832;5.974;2022-12-01T18:57:33;95146.91;;;21.77;67.80
61674;BME280;47573;43.832;5.974;2022-12-01T19:02:33;95149.63;;;21.77;67.82
61674;BME280;47573;43.832;5.974;2022-12-01T19:07:35;95155.06;;;21.77;67.85
61674;BME280;47573;43.832;5.974;2022-12-01T19:12:36;95162.97;;;21.78;67.90
61674;BME280;47573;43.832;5.974;2022-12-01T19:17:36;95165.09;;;21.76;68.02
61674;BME280;47573;43.832;5.974;2022-12-01T19:22:38;95162.97;;;21.78;68.26
61674;BME280;47573;43.832;5.974;2022-12-01T19:27:39;95157.53;;;21.78;68.33
61674;BME280;47573;43.832;5.974;2022-12-01T19:32:39;95161.91;;;21.79;68.59
61674;BME280;47573;43.832;5.974;2022-12-01T19:37:41;95167.09;;;21.81;68.41
61674;BME280;47573;43.832;5.974;2022-12-01T19:42:42;95175.88;;;21.83;68.58
61674;BME280;47573;43.832;5.974;2022-12-01T19:47:42;95167.94;;;21.81;68.67
61674;BME280;47573;43.832;5.974;2022-12-01T19:52:44;95167.34;;;21.79;68.93
61674;BME280;47573;43.832;5.974;2022-12-01T19:57:48;95166.88;;;21.82;68.95
61674;BME280;47573;43.832;5.974;2022-12-01T20:02:49;95174.91;;;21.89;69.09
61674;BME280;47573;43.832;5.974;2022-12-01T20:07:51;95180.69;;;21.92;68.97
61674;BME280;47573;43.832;5.974;2022-12-01T20:12:51;95182.34;;;21.93;68.97
61674;BME280;47573;43.832;5.974;2022-12-01T20:17:52;95177.84;;;21.99;68.86
61674;BME280;47573;43.832;5.974;2022-12-01T20:22:54;95193.91;;;22.00;68.93
61674;BME280;47573;43.832;5.974;2022-12-01T20:27:54;95185.88;;;22.05;69.04
61674;BME280;47573;43.832;5.974;2022-12-01T20:32:54;95187.66;;;22.00;69.14
61674;BME280;47573;43.832;5.974;2022-12-01T20:37:56;95188.25;;;22.02;69.28
61674;BME280;47573;43.832;5.974;2022-12-01T20:42:57;95199.91;;;22.02;69.46
61674;BME280;47573;43.832;5.974;2022-12-01T20:47:57;95196.03;;;21.98;69.27
61674;BME280;47573;43.832;5.974;2022-12-01T20:52:59;95196.03;;;21.98;69.55
61674;BME280;47573;43.832;5.974;2022-12-01T20:58:00;95199.13;;;21.90;69.54
61674;BME280;47573;43.832;5.974;2022-12-01T21:03:00;95198.88;;;21.80;69.81
61674;BME280;47573;43.832;5.974;2022-12-01T21:08:02;95200.75;;;21.80;69.95
61674;BME280;47573;43.832;5.974;2022-12-01T21:13:15;95193.44;;;21.80;70.32
61674;BME280;47573;43.832;5.974;2022-12-01T21:18:20;95186.38;;;21.79;70.09
61674;BME280;47573;43.832;5.974;2022-12-01T21:23:24;95186.59;;;21.66;69.99
61674;BME280;47573;43.832;5.974;2022-12-01T21:28:26;95185.91;;;21.59;69.98
61674;BME280;47573;43.832;5.974;2022-12-01T21:33:30;95192.19;;;21.48;70.21
61674;BME280;47573;43.832;5.974;2022-12-01T21:38:33;95192.28;;;21.41;70.25
61674;BME280;47573;43.832;5.974;2022-12-01T21:43:34;95192.41;;;21.35;70.19
61674;BME280;47573;43.832;5.974;2022-12-01T21:48:35;95203.72;;;21.32;69.98
61674;BME280;47573;43.832;5.974;2022-12-01T21:53:37;95190.28;;;21.25;69.95
61674;BME280;47573;43.832;5.974;2022-12-01T21:58:38;95192.03;;;21.20;69.98
61674;BME280;47573;43.832;5.974;2022-12-01T22:03:42;95209.84;;;21.16;70.17
61674;BME280;47573;43.832;5.974;2022-12-01T22:08:45;95205.97;;;21.12;70.15
61674;BME280;47573;43.832;5.974;2022-12-01T22:13:53;95211.25;;;21.07;69.99
61674;BME280;47573;43.832;5.974;2022-12-01T22:18:59;95210.66;;;21.05;70.35
61674;BME280;47573;43.832;5.974;2022-12-01T22:24:13;95205.69;;;21.02;70.26
61674;BME280;47573;43.832;5.974;2022-12-01T22:29:27;95206.03;;;20.94;70.17
61674;BME280;47573;43.832;5.974;2022-12-01T22:34:27;95201.53;;;20.88;70.24
61674;BME280;47573;43.832;5.974;2022-12-01T22:39:30;95208.00;;;20.87;70.14
61674;BME280;47573;43.832;5.974;2022-12-01T22:44:31;95216.03;;;20.81;70.13
61674;BME280;47573;43.832;5.974;2022-12-01T22:49:32;95226.72;;;20.76;70.10
61674;BME280;47573;43.832;5.974;2022-12-01T22:54:36;95213.84;;;20.72;69.96
61674;BME280;47573;43.832;5.974;2022-12-01T22:59:39;95218.34;;;20.66;70.00
61674;BME280;47573;43.832;5.974;2022-12-01T23:04:41;95215.03;;;20.64;70.18
61674;BME280;47573;43.832;5.974;2022-12-01T23:09:43;95212.63;;;20.56;70.07
61674;BME280;47573;43.832;5.974;2022-12-01T23:14:46;95213.09;;;20.53;70.27
61674;BME280;47573;43.832;5.974;2022-12-01T23:19:48;95218.97;;;20.50;70.25
61674;BME280;47573;43.832;5.974;2022-12-01T23:24:50;95204.44;;;20.45;69.99
61674;BME280;47573;43.832;5.974;2022-12-01T23:29:51;95215.53;;;20.43;69.93
61674;BME280;47573;43.832;5.974;2022-12-01T23:34:51;95213.25;;;20.40;69.83
61674;BME280;47573;43.832;5.974;2022-12-01T23:39:54;95208.75;;;20.34;69.99
61674;BME280;47573;43.832;5.974;2022-12-01T23:44:55;95209.22;;;20.31;70.00
61674;BME280;47573;43.832;5.974;2022-12-01T23:49:59;95210.75;;;20.27;69.90
61674;BME280;47573;43.832;5.974;2022-12-01T23:55:02;95205.75;;;20.24;70.13
